sensor_id;sensor_type;location;lat;lon;timestamp;pressure;altitude;pressure_sealevel;temperature;humidity
1652;BME280;823;49.028;8.454;2023-01-29T00:05:00;101706.75;;;4.82;45.91
1652;BME280;823;49.028;8.454;2023-01-29T00:10:00;101707.41;;;4.69;45.62
1652;BME280;823;49.028;8.454;2023-01-29T00:15:00;101710.75;;;4.62;45.83
1652;BME280;823;49.028;8.454;2023-01-29T00:20:01;101705.69;;;4.68;46.16
1652;BME280;823;49.028;8.454;2023-01-29T00:25:01;101700.56;;;4.68;46.17
1652;BME280;823;49.028;8.454;2023-01-29T00:30:02;101698.72;;;4.56;46.61
1652;BME280;823;49.028;8.454;2023-01-29T00:35:11;101707.34;;;4.61;46.37
1652;BME280;823;49.028;8.454;2023-01-29T00:40:11;101703.75;;;4.48;46.52
1652;BME280;823;49.028;8.454;2023-01-29T00:45:12;101698.81;;;4.64;46.55
1652;BME280;823;49.028;8.454;2023-01-29T00:50:12;101700.47;;;4.58;45.97
1652;BME280;823;49.028;8.454;2023-01-29T00:55:13;101696.88;;;4.47;46.08
1652;BME280;823;49.028;8.454;2023-01-29T01:00:16;101708.72;;;4.37;45.89
1652;BME280;823;49.028;8.454;2023-01-29T01:05:17;101713.22;;;4.54;46.28
1652;BME280;823;49.028;8.454;2023-01-29T01:10:26;101719.13;;;4.48;46.80
1652;BME280;823;49.028;8.454;2023-01-29T01:15:30;101713.06;;;4.43;46.27
1652;BME280;823;49.028;8.454;2023-01-29T01:20:34;101714.03;;;4.51;46.51
1652;BME280;823;49.028;8.454;2023-01-29T01:25:34;101712.25;;;4.47;46.32
1652;BME280;823;49.028;8.454;2023-01-29T01:30:35;101717.25;;;4.35;46.40
1652;BME280;823;49.028;8.454;2023-01-29T01:35:37;101717.34;;;4.44;46.77
1652;BME280;823;49.028;8.454;2023-01-29T01:40:44;101720.72;;;4.41;46.79
1652;BME280;823;49.028;8.454;2023-01-29T01:45:45;101712.16;;;4.38;47.10
1652;BME280;823;49.028;8.454;2023-01-29T01:50:50;101710.56;;;4.48;46.89
1652;BME280;823;49.028;8.454;2023-01-29T01:55:56;101703.59;;;4.37;46.50
1652;BME280;823;49.028;8.454;2023-01-29T02:00:58;101702.81;;;4.43;46.49
1652;BME280;823;49.028;8.454;2023-01-29T02:05:58;101693.44;;;4.43;46.42
1652;BME280;823;49.028;8.454;2023-01-29T02:11:18;101700.97;;;4.31;46.22
1652;BME280;823;49.028;8.454;2023-01-29T02:16:20;101706.91;;;4.30;46.07
1652;BME280;823;49.028;8.454;2023-01-29T02:21:35;101710.09;;;4.15;46.16
1652;BME280;823;49.028;8.454;2023-01-29T02:37:08;101705.22;;;4.31;46.77
1652;BME280;823;49.028;8.454;2023-01-29T02:42:25;101706.16;;;4.37;46.88
1652;BME280;823;49.028;8.454;2023-01-29T02:47:44;101701.94;;;4.41;46.88
1652;BME280;823;49.028;8.454;2023-01-29T02:52:53;101704.53;;;4.44;47.23
1652;BME280;823;49.028;8.454;2023-01-29T02:58:12;101694.22;;;4.38;46.67
1652;BME280;823;49.028;8.454;2023-01-29T03:03:24;101690.75;;;4.36;46.63
1652;BME280;823;49.028;8.454;2023-01-29T03:08:31;101686.25;;;4.19;46.34
1652;BME280;823;49.028;8.454;2023-01-29T03:18:53;101687.16;;;4.21;46.40
1652;BME280;823;49.028;8.454;2023-01-29T03:23:54;101680.44;;;4.30;46.33
1652;BME280;823;49.028;8.454;2023-01-29T03:29:14;101685.56;;;4.28;46.63
1652;BME280;823;49.028;8.454;2023-01-29T03:34:39;101692.28;;;4.21;46.20
1652;BME280;823;49.028;8.454;2023-01-29T03:39:41;101688.09;;;4.26;46.58
1652;BME280;823;49.028;8.454;2023-01-29T03:55:56;101689.81;;;4.29;47.22
1652;BME280;823;49.028;8.454;2023-01-29T04:01:18;101696.66;;;4.29;47.36
1652;BME280;823;49.028;8.454;2023-01-29T04:06:23;101698.34;;;4.26;47.60
1652;BME280;823;49.028;8.454;2023-01-29T04:11:26;101699.13;;;4.22;47.65
1652;BME280;823;49.028;8.454;2023-01-29T04:16:33;101703.97;;;4.04;47.06
1652;BME280;823;49.028;8.454;2023-01-29T04:21:35;101694.63;;;4.06;47.21
1652;BME280;823;49.028;8.454;2023-01-29T04:32:16;101698.88;;;4.07;46.89
1652;BME280;823;49.028;8.454;2023-01-29T04:37:31;101703.22;;;4.11;47.22
1652;BME280;823;49.028;8.454;2023-01-29T04:42:59;101702.38;;;4.11;47.10
1652;BME280;823;49.028;8.454;2023-01-29T04:53:28;101703.13;;;4.05;47.11
1652;BME280;823;49.028;8.454;2023-01-29T04:58:38;101708.28;;;4.06;46.91
1652;BME280;823;49.028;8.454;2023-01-29T05:03:40;101699.00;;;4.13;47.66
1652;BME280;823;49.028;8.454;2023-01-29T05:08:42;101710.06;;;4.12;47.25
1652;BME280;823;49.028;8.454;2023-01-29T05:13:43;101715.19;;;4.12;47.18
1652;BME280;823;49.028;8.454;2023-01-29T05:18:43;101690.41;;;4.11;47.20
1652;BME280;823;49.028;8.454;2023-01-29T05:23:44;101684.47;;;4.12;47.27
1652;BME280;823;49.028;8.454;2023-01-29T05:28:52;101670.03;;;4.17;47.64
1652;BME280;823;49.028;8.454;2023-01-29T05:33:52;101673.44;;;4.18;47.94
1652;BME280;823;49.028;8.454;2023-01-29T05:38:52;101680.13;;;4.08;48.37
1652;BME280;823;49.028;8.454;2023-01-29T05:43:53;101667.47;;;4.17;47.95
1652;BME280;823;49.028;8.454;2023-01-29T05:48:53;101677.59;;;4.11;48.09
1652;BME280;823;49.028;8.454;2023-01-29T05:53:53;101669.88;;;4.06;48.07
1652;BME280;823;49.028;8.454;2023-01-29T05:58:54;101691.16;;;4.04;47.59
1652;BME280;823;49.028;8.454;2023-01-29T06:03:54;101694.56;;;4.03;47.01
1652;BME280;823;49.028;8.454;2023-01-29T06:08:55;101697.88;;;3.97;47.26
1652;BME280;823;49.028;8.454;2023-01-29T06:13:55;101702.94;;;3.92;47.00
1652;BME280;823;49.028;8.454;2023-01-29T06:18:56;101702.13;;;3.94;47.54
1652;BME280;823;49.028;8.454;2023-01-29T06:23:56;101701.13;;;3.84;47.90
1652;BME280;823;49.028;8.454;2023-01-29T06:28:56;101696.78;;;3.80;48.15
1652;BME280;823;49.028;8.454;2023-01-29T06:33:57;101698.59;;;3.87;47.83
1652;BME280;823;49.028;8.454;2023-01-29T06:38:57;101687.56;;;3.89;47.86
1652;BME280;823;49.028;8.454;2023-01-29T06:43:57;101680.72;;;3.90;48.14
1652;BME280;823;49.028;8.454;2023-01-29T06:48:58;101689.31;;;3.94;47.79
1652;BME280;823;49.028;8.454;2023-01-29T06:54:00;101682.47;;;3.92;47.41
1652;BME280;823;49.028;8.454;2023-01-29T06:59:00;101686.78;;;3.95;47.53
1652;BME280;823;49.028;8.454;2023-01-29T07:04:01;101685.75;;;3.82;47.70
1652;BME280;823;49.028;8.454;2023-01-29T07:09:03;101693.19;;;3.68;47.93
1652;BME280;823;49.028;8.454;2023-01-29T07:14:04;101700.97;;;3.76;48.12
1652;BME280;823;49.028;8.454;2023-01-29T07:19:04;101698.38;;;3.73;47.64
1652;BME280;823;49.028;8.454;2023-01-29T07:24:05;101702.66;;;3.74;47.70
1652;BME280;823;49.028;8.454;2023-01-29T07:29:05;101701.19;;;3.88;47.55
1652;BME280;823;49.028;8.454;2023-01-29T07:34:05;101699.59;;;3.97;47.98
1652;BME280;823;49.028;8.454;2023-01-29T07:39:06;101709.84;;;3.98;47.90
1652;BME280;823;49.028;8.454;2023-01-29T07:44:06;101726.25;;;4.09;47.28
1652;BME280;823;49.028;8.454;2023-01-29T07:49:06;101741.56;;;4.06;46.93
1652;BME280;823;49.028;8.454;2023-01-29T07:54:07;101741.72;;;4.17;46.26
1652;BME280;823;49.028;8.454;2023-01-29T07:59:07;101740.84;;;4.15;46.67
1652;BME280;823;49.028;8.454;2023-01-29T08:04:07;101738.38;;;4.21;46.41
1652;BME280;823;49.028;8.454;2023-01-29T08:09:09;101736.78;;;4.30;46.29
1652;BME280;823;49.028;8.454;2023-01-29T08:14:09;101752.00;;;4.19;46.49
1652;BME280;823;49.028;8.454;2023-01-29T08:19:09;101746.22;;;4.31;46.81
1652;BME280;823;49.028;8.454;2023-01-29T08:24:10;101750.47;;;4.32;46.73
1652;BME280;823;49.028;8.454;2023-01-29T08:29:11;101758.31;;;4.41;46.93
1652;BME280;823;49.028;8.454;2023-01-29T08:34:11;101761.66;;;4.37;47.39
1652;BME280;823;49.028;8.454;2023-01-29T08:39:12;101757.53;;;4.48;46.93
1652;BME280;823;49.028;8.454;2023-01-29T08:44:12;101765.13;;;4.40;46.74
1652;BME280;823;49.028;8.454;2023-01-29T08:49:12;101760.31;;;4.65;46.44
1652;BME280;823;49.028;8.454;2023-01-29T08:54:13;101760.44;;;4.73;46.12
1652;BME280;823;49.028;8.454;2023-01-29T08:59:13;101751.03;;;4.73;45.01
1652;BME280;823;49.028;8.454;2023-01-29T09:04:13;101748.59;;;4.81;45.21
1652;BME280;823;49.028;8.454;2023-01-29T09:09:14;101762.50;;;4.99;45.04
1652;BME280;823;49.028;8.454;2023-01-29T09:14:15;101766.75;;;4.98;45.34
1652;BME280;823;49.028;8.454;2023-01-29T09:19:15;101778.88;;;5.11;44.65
1652;BME280;823;49.028;8.454;2023-01-29T09:24:15;101774.66;;;5.15;44.48
1652;BME280;823;49.028;8.454;2023-01-29T09:29:16;101761.06;;;5.25;44.52
1652;BME280;823;49.028;8.454;2023-01-29T09:34:16;101739.84;;;5.39;43.86
1652;BME280;823;49.028;8.454;2023-01-29T09:39:16;101710.00;;;5.47;43.33
1652;BME280;823;49.028;8.454;2023-01-29T09:44:25;101694.63;;;5.53;42.92
1652;BME280;823;49.028;8.454;2023-01-29T09:49:31;101710.94;;;5.58;43.13
1652;BME280;823;49.028;8.454;2023-01-29T09:54:44;101712.59;;;5.50;43.32
1652;BME280;823;49.028;8.454;2023-01-29T09:59:47;101705.91;;;5.69;43.37
1652;BME280;823;49.028;8.454;2023-01-29T10:05:16;101703.38;;;5.77;42.73
1652;BME280;823;49.028;8.454;2023-01-29T10:21:18;101716.34;;;5.94;42.75
1652;BME280;823;49.028;8.454;2023-01-29T10:26:26;101719.09;;;6.12;42.87
1652;BME280;823;49.028;8.454;2023-01-29T10:31:31;101725.09;;;6.14;42.25
1652;BME280;823;49.028;8.454;2023-01-29T10:36:39;101729.38;;;6.12;42.08
1652;BME280;823;49.028;8.454;2023-01-29T10:42:12;101729.47;;;6.23;41.54
1652;BME280;823;49.028;8.454;2023-01-29T10:58:09;101726.97;;;6.36;41.18
1652;BME280;823;49.028;8.454;2023-01-29T11:03:21;101710.72;;;6.40;41.91
1652;BME280;823;49.028;8.454;2023-01-29T11:08:25;101698.72;;;6.39;42.05
1652;BME280;823;49.028;8.454;2023-01-29T11:13:31;101680.72;;;6.40;41.78
1652;BME280;823;49.028;8.454;2023-01-29T11:23:51;101664.41;;;6.29;42.04
1652;BME280;823;49.028;8.454;2023-01-29T11:29:03;101660.09;;;6.23;41.45
1652;BME280;823;49.028;8.454;2023-01-29T11:34:23;101657.59;;;6.42;41.05
1652;BME280;823;49.028;8.454;2023-01-29T11:39:25;101645.63;;;6.47;41.47
1652;BME280;823;49.028;8.454;2023-01-29T11:49:32;101634.50;;;6.51;41.35
1652;BME280;823;49.028;8.454;2023-01-29T11:54:44;101624.97;;;6.24;41.54
1652;BME280;823;49.028;8.454;2023-01-29T11:59:50;101609.66;;;6.45;41.76
1652;BME280;823;49.028;8.454;2023-01-29T12:04:53;101600.22;;;6.47;41.74
1652;BME280;823;49.028;8.454;2023-01-29T12:09:57;101603.63;;;6.42;42.01
1652;BME280;823;49.028;8.454;2023-01-29T12:15:21;101591.72;;;6.70;41.68
1652;BME280;823;49.028;8.454;2023-01-29T12:20:29;101567.72;;;6.71;41.56
1652;BME280;823;49.028;8.454;2023-01-29T12:25:46;101560.03;;;6.85;41.39
1652;BME280;823;49.028;8.454;2023-01-29T12:36:31;101539.44;;;6.63;41.96
1652;BME280;823;49.028;8.454;2023-01-29T12:41:38;101535.16;;;6.64;41.76
1652;BME280;823;49.028;8.454;2023-01-29T12:46:43;101524.91;;;6.86;40.91
1652;BME280;823;49.028;8.454;2023-01-29T12:51:50;101517.19;;;6.86;41.17
1652;BME280;823;49.028;8.454;2023-01-29T12:56:58;101494.03;;;6.76;41.25
1652;BME280;823;49.028;8.454;2023-01-29T13:02:08;101490.59;;;6.99;41.17
1652;BME280;823;49.028;8.454;2023-01-29T13:07:16;101490.59;;;6.93;40.66
1652;BME280;823;49.028;8.454;2023-01-29T13:12:20;101483.72;;;7.04;40.61
1652;BME280;823;49.028;8.454;2023-01-29T13:17:31;101488.03;;;6.88;41.22
1652;BME280;823;49.028;8.454;2023-01-29T13:22:36;101488.88;;;6.90;41.12
1652;BME280;823;49.028;8.454;2023-01-29T13:27:38;101491.47;;;6.99;40.88
1652;BME280;823;49.028;8.454;2023-01-29T13:32:38;101488.00;;;7.13;40.99
1652;BME280;823;49.028;8.454;2023-01-29T13:37:47;101486.28;;;7.30;40.31
1652;BME280;823;49.028;8.454;2023-01-29T13:42:49;101488.84;;;7.20;41.32
1652;BME280;823;49.028;8.454;2023-01-29T13:47:52;101496.59;;;7.13;41.37
1652;BME280;823;49.028;8.454;2023-01-29T13:52:58;101482.88;;;7.16;40.43
1652;BME280;823;49.028;8.454;2023-01-29T13:58:05;101482.88;;;6.85;41.08
1652;BME280;823;49.028;8.454;2023-01-29T14:18:19;101462.31;;;6.85;41.86
1652;BME280;823;49.028;8.454;2023-01-29T14:28:28;101446.88;;;6.90;41.68
1652;BME280;823;49.028;8.454;2023-01-29T14:33:38;101450.31;;;6.73;41.84
1652;BME280;823;49.028;8.454;2023-01-29T14:38:45;101433.16;;;6.74;41.63
1652;BME280;823;49.028;8.454;2023-01-29T14:43:46;101445.16;;;6.53;42.71
1652;BME280;823;49.028;8.454;2023-01-29T14:48:47;101445.16;;;6.38;42.69
1652;BME280;823;49.028;8.454;2023-01-29T14:54:00;101458.88;;;6.43;42.31
1652;BME280;823;49.028;8.454;2023-01-29T14:59:15;101452.00;;;6.42;42.12
1652;BME280;823;49.028;8.454;2023-01-29T15:09:45;101451.97;;;6.33;42.85
1652;BME280;823;49.028;8.454;2023-01-29T15:15:01;101453.72;;;6.29;42.95
1652;BME280;823;49.028;8.454;2023-01-29T15:20:24;101459.72;;;6.42;42.56
1652;BME280;823;49.028;8.454;2023-01-29T15:25:26;101458.00;;;6.39;42.42
1652;BME280;823;49.028;8.454;2023-01-29T15:30:32;101458.00;;;6.41;43.07
1652;BME280;823;49.028;8.454;2023-01-29T15:40:35;101451.13;;;6.24;43.74
1652;BME280;823;49.028;8.454;2023-01-29T15:45:39;101443.44;;;6.29;43.46
1652;BME280;823;49.028;8.454;2023-01-29T15:50:40;101440.00;;;6.19;43.85
1652;BME280;823;49.028;8.454;2023-01-29T15:55:42;101436.50;;;6.05;44.23
1652;BME280;823;49.028;8.454;2023-01-29T16:00:51;101435.66;;;6.07;44.38
1652;BME280;823;49.028;8.454;2023-01-29T16:05:53;101443.31;;;5.96;44.52
1652;BME280;823;49.028;8.454;2023-01-29T16:10:57;101449.28;;;5.88;44.79
1652;BME280;823;49.028;8.454;2023-01-29T16:16:03;101447.50;;;5.63;45.29
1652;BME280;823;49.028;8.454;2023-01-29T16:21:10;101459.38;;;5.46;45.61
1652;BME280;823;49.028;8.454;2023-01-29T16:26:19;101455.00;;;5.33;46.01
1652;BME280;823;49.028;8.454;2023-01-29T16:31:26;101457.72;;;5.56;45.76
1652;BME280;823;49.028;8.454;2023-01-29T16:36:27;101459.28;;;5.32;46.69
1652;BME280;823;49.028;8.454;2023-01-29T16:41:30;101461.84;;;5.31;46.74
1652;BME280;823;49.028;8.454;2023-01-29T16:46:36;101446.41;;;5.21;46.89
1652;BME280;823;49.028;8.454;2023-01-29T16:51:38;101446.41;;;5.21;46.64
1652;BME280;823;49.028;8.454;2023-01-29T16:56:38;101443.84;;;5.23;46.91
1652;BME280;823;49.028;8.454;2023-01-29T17:01:39;101435.25;;;5.15;46.92
1652;BME280;823;49.028;8.454;2023-01-29T17:06:41;101433.41;;;4.97;47.40
1652;BME280;823;49.028;8.454;2023-01-29T17:11:43;101440.25;;;4.98;47.48
1652;BME280;823;49.028;8.454;2023-01-29T17:16:55;101433.41;;;4.97;47.56
1652;BME280;823;49.028;8.454;2023-01-29T17:21:56;101436.78;;;4.88;48.07
1652;BME280;823;49.028;8.454;2023-01-29T17:26:59;101431.56;;;4.78;48.28
1652;BME280;823;49.028;8.454;2023-01-29T17:31:59;101428.16;;;4.80;48.33
1652;BME280;823;49.028;8.454;2023-01-29T17:37:00;101419.56;;;4.71;48.61
1652;BME280;823;49.028;8.454;2023-01-29T17:42:00;101419.63;;;4.81;48.06
1652;BME280;823;49.028;8.454;2023-01-29T17:47:00;101433.31;;;4.84;48.17
1652;BME280;823;49.028;8.454;2023-01-29T17:52:01;101434.97;;;4.74;48.04
1652;BME280;823;49.028;8.454;2023-01-29T17:57:01;101446.91;;;4.71;48.25
1652;BME280;823;49.028;8.454;2023-01-29T18:02:02;101447.63;;;4.57;48.86
1652;BME280;823;49.028;8.454;2023-01-29T18:07:03;101443.34;;;4.53;49.03
1652;BME280;823;49.028;8.454;2023-01-29T18:12:07;101433.91;;;4.49;49.26
1652;BME280;823;49.028;8.454;2023-01-29T18:17:08;101432.81;;;4.22;50.22
1652;BME280;823;49.028;8.454;2023-01-29T18:22:09;101422.47;;;4.16;50.45
1652;BME280;823;49.028;8.454;2023-01-29T18:27:10;101431.91;;;4.20;50.22
1652;BME280;823;49.028;8.454;2023-01-29T18:32:10;101437.97;;;4.29;50.24
1652;BME280;823;49.028;8.454;2023-01-29T18:37:10;101442.94;;;4.13;50.38
1652;BME280;823;49.028;8.454;2023-01-29T18:42:11;101458.34;;;4.18;50.33
1652;BME280;823;49.028;8.454;2023-01-29T18:47:11;101463.47;;;4.18;50.28
1652;BME280;823;49.028;8.454;2023-01-29T18:52:11;101463.59;;;4.30;49.85
1652;BME280;823;49.028;8.454;2023-01-29T18:57:12;101469.53;;;4.28;50.03
1652;BME280;823;49.028;8.454;2023-01-29T19:02:14;101468.63;;;4.21;50.08
1652;BME280;823;49.028;8.454;2023-01-29T19:07:15;101471.81;;;4.00;51.33
1652;BME280;823;49.028;8.454;2023-01-29T19:12:15;101467.63;;;4.08;50.67
1652;BME280;823;49.028;8.454;2023-01-29T19:17:16;101470.97;;;4.01;50.89
1652;BME280;823;49.028;8.454;2023-01-29T19:22:16;101466.00;;;4.13;50.38
1652;BME280;823;49.028;8.454;2023-01-29T19:27:17;101458.19;;;4.02;50.88
1652;BME280;823;49.028;8.454;2023-01-29T19:32:17;101461.56;;;4.00;50.90
1652;BME280;823;49.028;8.454;2023-01-29T19:37:18;101451.28;;;3.97;50.88
1652;BME280;823;49.028;8.454;2023-01-29T19:42:18;101447.59;;;3.71;52.25
1652;BME280;823;49.028;8.454;2023-01-29T19:47:19;101452.00;;;3.83;51.28
1652;BME280;823;49.028;8.454;2023-01-29T19:52:20;101441.75;;;3.83;51.82
1652;BME280;823;49.028;8.454;2023-01-29T19:57:35;101434.88;;;3.78;51.77
1652;BME280;823;49.028;8.454;2023-01-29T20:02:35;101435.78;;;3.81;51.95
1652;BME280;823;49.028;8.454;2023-01-29T20:07:36;101446.13;;;3.90;51.61
1652;BME280;823;49.028;8.454;2023-01-29T20:12:37;101448.56;;;3.81;51.50
1652;BME280;823;49.028;8.454;2023-01-29T20:17:37;101440.09;;;3.85;51.48
1652;BME280;823;49.028;8.454;2023-01-29T20:22:38;101433.25;;;3.84;51.68
1652;BME280;823;49.028;8.454;2023-01-29T20:27:38;101433.25;;;3.84;51.50
1652;BME280;823;49.028;8.454;2023-01-29T20:32:38;101435.47;;;3.56;52.40
1652;BME280;823;49.028;8.454;2023-01-29T20:37:39;101428.72;;;3.62;52.43
1652;BME280;823;49.028;8.454;2023-01-29T20:42:39;101430.50;;;3.69;52.09
1652;BME280;823;49.028;8.454;2023-01-29T20:47:40;101420.13;;;3.56;52.66
1652;BME280;823;49.028;8.454;2023-01-29T20:52:41;101423.66;;;3.66;52.45
1652;BME280;823;49.028;8.454;2023-01-29T20:57:41;101416.88;;;3.70;52.18
1652;BME280;823;49.028;8.454;2023-01-29T21:02:42;101422.81;;;3.66;52.00
1652;BME280;823;49.028;8.454;2023-01-29T21:07:44;101416.81;;;3.65;52.37
1652;BME280;823;49.028;8.454;2023-01-29T21:12:45;101413.19;;;3.46;53.12
1652;BME280;823;49.028;8.454;2023-01-29T21:17:46;101409.81;;;3.50;53.16
1652;BME280;823;49.028;8.454;2023-01-29T21:22:47;101410.50;;;3.37;53.80
1652;BME280;823;49.028;8.454;2023-01-29T21:27:48;101405.41;;;3.40;53.26
1652;BME280;823;49.028;8.454;2023-01-29T21:32:48;101399.53;;;3.47;53.27
1652;BME280;823;49.028;8.454;2023-01-29T21:37:49;101395.13;;;3.35;54.02
1652;BME280;823;49.028;8.454;2023-01-29T21:42:50;101404.59;;;3.41;53.53
1652;BME280;823;49.028;8.454;2023-01-29T21:48:10;101405.38;;;3.37;53.85
1652;BME280;823;49.028;8.454;2023-01-29T21:53:10;101412.13;;;3.32;53.58
1652;BME280;823;49.028;8.454;2023-01-29T21:58:10;101404.66;;;3.47;53.41
1652;BME280;823;49.028;8.454;2023-01-29T22:03:11;101398.53;;;3.36;54.11
1652;BME280;823;49.028;8.454;2023-01-29T22:08:11;101399.19;;;3.21;54.25
1652;BME280;823;49.028;8.454;2023-01-29T22:13:11;101389.16;;;3.36;53.73
1652;BME280;823;49.028;8.454;2023-01-29T22:18:12;101378.97;;;3.38;53.96
1652;BME280;823;49.028;8.454;2023-01-29T22:23:12;101372.03;;;3.31;54.56
1652;BME280;823;49.028;8.454;2023-01-29T22:28:14;101370.19;;;3.17;54.54
1652;BME280;823;49.028;8.454;2023-01-29T22:33:14;101370.41;;;3.36;53.77
1652;BME280;823;49.028;8.454;2023-01-29T22:38:14;101355.88;;;3.32;54.29
1652;BME280;823;49.028;8.454;2023-01-29T22:43:15;101347.34;;;3.30;54.21
1652;BME280;823;49.028;8.454;2023-01-29T22:48:15;101329.44;;;3.30;54.08
1652;BME280;823;49.028;8.454;2023-01-29T22:53:16;101311.41;;;3.19;54.62
1652;BME280;823;49.028;8.454;2023-01-29T22:58:16;101325.88;;;3.18;54.76
1652;BME280;823;49.028;8.454;2023-01-29T23:03:16;101325.97;;;3.26;54.51
1652;BME280;823;49.028;8.454;2023-01-29T23:08:17;101292.63;;;3.17;54.72
1652;BME280;823;49.028;8.454;2023-01-29T23:13:17;101302.97;;;3.26;54.51
1652;BME280;823;49.028;8.454;2023-01-29T23:18:18;101307.16;;;3.21;54.48
1652;BME280;823;49.028;8.454;2023-01-29T23:23:18;101307.25;;;3.27;54.55
1652;BME280;823;49.028;8.454;2023-01-29T23:28:19;101315.41;;;3.00;54.93
1652;BME280;823;49.028;8.454;2023-01-29T23:33:19;101289.19;;;3.13;55.47
1652;BME280;823;49.028;8.454;2023-01-29T23:38:19;101277.38;;;3.23;54.90
1652;BME280;823;49.028;8.454;2023-01-29T23:43:20;101270.31;;;3.02;55.44
1652;BME280;823;49.028;8.454;2023-01-29T23:48:20;101268.66;;;3.10;55.24
1652;BME280;823;49.028;8.454;2023-01-29T23:53:21;101271.31;;;3.15;55.28
1652;BME280;823;49.028;8.454;2023-01-29T23:58:22;101260.28;;;3.20;54.90
